Time;durP1;ratioP1;P1;durP2;ratioP2;P2;SDS_P1;SDS_P2;PMS_P1;PMS_P2;Temp;Humidity;BMP_temperature;BMP_pressure;BME280_temperature;BME280_humidity;BME280_pressure;Samples;Min_cycle;Max_cycle;Signal;HPM_P1;HPM_P2
2023/03/03 00:01:24;;;;;;;43.30;19.98;;;;;;;;;;5070594;28;20917;-82
2023/03/03 00:03:57;;;;;;;46.88;20.40;;;;;;;;;;5083505;28;20417;-83
2023/03/03 00:06:24;;;;;;;40.38;18.90;;;;;;;;;;5075098;28;20428;-82
2023/03/03 00:08:52;;;;;;;41.58;18.77;;;;;;;;;;5072277;28;20425;-82
2023/03/03 00:11:25;;;;;;;43.53;19.00;;;;;;;;;;5074116;28;20417;-83
2023/03/03 00:13:58;;;;;;;43.08;19.25;;;;;;;;;;5063870;28;20506;-82
2023/03/03 00:16:35;;;;;;;44.00;19.15;;;;;;;;;;5071403;28;20417;-82
2023/03/03 00:19:13;;;;;;;44.28;19.00;;;;;;;;;;5073829;28;20422;-81
2023/03/03 00:21:41;;;;;;;41.03;18.85;;;;;;;;;;5084241;28;20891;-82
2023/03/03 00:24:16;;;;;;;50.63;20.58;;;;;;;;;;5067376;28;20408;-82
2023/03/03 00:26:50;;;;;;;47.20;19.83;;;;;;;;;;5083276;28;20406;-82
2023/03/03 00:29:27;;;;;;;45.75;19.13;;;;;;;;;;5074039;28;20441;-82
2023/03/03 00:32:12;;;;;;;48.50;20.17;;;;;;;;;;5081211;28;20411;-82
2023/03/03 00:34:41;;;;;;;45.27;19.43;;;;;;;;;;5073506;28;20477;-82
2023/03/03 00:37:23;;;;;;;47.50;19.83;;;;;;;;;;5074689;28;20432;-83
2023/03/03 00:40:02;;;;;;;46.47;20.10;;;;;;;;;;5089928;28;20413;-81
2023/03/03 00:42:35;;;;;;;45.63;20.67;;;;;;;;;;5070703;28;20423;-82
2023/03/03 00:45:16;;;;;;;46.00;20.67;;;;;;;;;;5079590;28;20403;-83
2023/03/03 00:47:45;;;;;;;47.30;20.55;;;;;;;;;;5070433;28;20420;-82
2023/03/03 00:50:25;;;;;;;51.20;20.75;;;;;;;;;;5085745;28;20414;-82
2023/03/03 00:52:58;;;;;;;61.97;21.45;;;;;;;;;;5076446;28;20432;-82
2023/03/03 00:55:32;;;;;;;54.97;21.23;;;;;;;;;;5088760;28;20790;-82
2023/03/03 00:58:00;;;;;;;116.82;22.48;;;;;;;;;;5069971;28;20424;-82
2023/03/03 01:00:32;;;;;;;149.10;22.88;;;;;;;;;;5073920;28;20414;-82
2023/03/03 01:03:10;;;;;;;97.35;22.02;;;;;;;;;;5062417;28;20416;-83
2023/03/03 01:05:37;;;;;;;93.55;22.45;;;;;;;;;;5073625;28;20413;-82
2023/03/03 01:08:05;;;;;;;225.02;22.38;;;;;;;;;;5084162;28;20411;-82
2023/03/03 01:10:40;;;;;;;115.77;21.97;;;;;;;;;;5069639;28;20515;-82
2023/03/03 01:13:13;;;;;;;238.27;22.17;;;;;;;;;;5089710;28;20766;-82
2023/03/03 01:15:41;;;;;;;239.07;22.57;;;;;;;;;;5069309;28;20517;-84
2023/03/03 01:18:15;;;;;;;140.73;21.85;;;;;;;;;;5090571;28;20421;-83
2023/03/03 01:20:48;;;;;;;235.93;22.50;;;;;;;;;;5081166;28;20413;-82
2023/03/03 01:23:15;;;;;;;235.73;22.23;;;;;;;;;;5066509;28;20418;-83
2023/03/03 01:25:43;;;;;;;223.90;21.90;;;;;;;;;;5065206;28;20411;-83
2023/03/03 01:28:11;;;;;;;215.65;21.52;;;;;;;;;;5073325;28;20414;-84
2023/03/03 01:30:39;;;;;;;122.00;21.23;;;;;;;;;;5087731;28;20393;-82
2023/03/03 01:33:07;;;;;;;176.52;20.38;;;;;;;;;;5073447;28;20414;-82
2023/03/03 01:35:36;;;;;;;103.55;20.08;;;;;;;;;;5073301;28;20426;-81
2023/03/03 01:38:09;;;;;;;141.53;20.70;;;;;;;;;;5071881;28;20506;-83
2023/03/03 01:40:41;;;;;;;199.90;20.70;;;;;;;;;;5072919;28;21225;-81
2023/03/03 01:43:12;;;;;;;138.23;20.48;;;;;;;;;;5081000;28;20933;-82
2023/03/03 01:46:00;;;;;;;159.52;21.58;;;;;;;;;;5087240;28;20421;-82
2023/03/03 01:48:29;;;;;;;201.70;21.13;;;;;;;;;;5061730;28;20437;-82
2023/03/03 01:51:00;;;;;;;140.25;20.13;;;;;;;;;;5070605;28;20425;-82
2023/03/03 01:53:30;;;;;;;134.43;20.30;;;;;;;;;;5066485;28;20414;-82
2023/03/03 01:56:05;;;;;;;244.35;20.83;;;;;;;;;;5070543;28;20423;-82
2023/03/03 01:58:39;;;;;;;189.60;21.17;;;;;;;;;;5070420;28;20894;-82
2023/03/03 02:01:12;;;;;;;153.93;20.25;;;;;;;;;;5073523;28;20793;-83
2023/03/03 02:03:45;;;;;;;142.90;19.92;;;;;;;;;;5073154;28;20410;-82
2023/03/03 02:06:20;;;;;;;207.00;20.98;;;;;;;;;;5065132;28;20418;-82
2023/03/03 02:08:54;;;;;;;213.70;21.02;;;;;;;;;;5068590;28;20407;-82
2023/03/03 02:11:27;;;;;;;159.02;20.08;;;;;;;;;;5081963;28;20492;-82
2023/03/03 02:14:00;;;;;;;130.70;20.23;;;;;;;;;;5070631;28;20482;-84
2023/03/03 02:16:28;;;;;;;210.13;20.73;;;;;;;;;;5073009;28;20414;-82
2023/03/03 02:19:01;;;;;;;102.70;19.48;;;;;;;;;;5070504;28;20413;-82
2023/03/03 02:21:30;;;;;;;215.55;19.98;;;;;;;;;;5072385;28;20425;-82
2023/03/03 02:24:08;;;;;;;150.35;19.50;;;;;;;;;;5072619;28;20421;-82
2023/03/03 02:26:43;;;;;;;128.52;19.40;;;;;;;;;;5072999;28;20414;-82
2023/03/03 02:29:16;;;;;;;174.80;19.60;;;;;;;;;;5072719;28;20517;-82
2023/03/03 02:31:49;;;;;;;123.40;18.20;;;;;;;;;;5072907;28;20417;-83
2023/03/03 02:34:22;;;;;;;123.18;20.05;;;;;;;;;;5072107;28;20402;-84
2023/03/03 02:36:55;;;;;;;113.97;19.35;;;;;;;;;;5068166;28;20436;-84
2023/03/03 02:39:28;;;;;;;197.33;19.77;;;;;;;;;;5072834;28;20417;-81
2023/03/03 02:42:00;;;;;;;136.20;18.95;;;;;;;;;;5066870;28;20420;-83
2023/03/03 02:44:34;;;;;;;105.30;19.52;;;;;;;;;;5070390;28;20422;-83
2023/03/03 02:47:03;;;;;;;141.45;19.42;;;;;;;;;;5064760;28;20412;-82
2023/03/03 02:49:32;;;;;;;136.07;20.27;;;;;;;;;;5068873;28;20418;-82
2023/03/03 02:52:08;;;;;;;207.35;19.95;;;;;;;;;;5088407;28;20766;-82
2023/03/03 02:54:44;;;;;;;225.00;19.52;;;;;;;;;;5067287;28;20419;-82
2023/03/03 02:57:18;;;;;;;150.95;18.55;;;;;;;;;;5064664;28;20925;-82
2023/03/03 02:59:51;;;;;;;183.13;19.35;;;;;;;;;;5063618;28;20429;-82
2023/03/03 03:02:26;;;;;;;126.47;18.85;;;;;;;;;;5086431;28;20408;-83
2023/03/03 03:04:58;;;;;;;159.88;18.58;;;;;;;;;;5071232;28;20416;-83
2023/03/03 03:07:26;;;;;;;146.98;18.17;;;;;;;;;;5076011;28;20414;-83
2023/03/03 03:09:59;;;;;;;92.93;17.13;;;;;;;;;;5074196;28;21233;-83
2023/03/03 03:12:31;;;;;;;184.93;18.02;;;;;;;;;;5069421;28;20898;-82
2023/03/03 03:15:04;;;;;;;103.35;17.30;;;;;;;;;;5070929;28;20896;-82
2023/03/03 03:17:38;;;;;;;203.63;18.05;;;;;;;;;;5072691;28;20922;-82
2023/03/03 03:20:12;;;;;;;162.88;17.23;;;;;;;;;;5070893;28;20412;-82
2023/03/03 03:22:40;;;;;;;111.80;17.50;;;;;;;;;;5071674;28;20423;-82
2023/03/03 03:25:13;;;;;;;113.85;18.13;;;;;;;;;;5075670;28;20419;-83
2023/03/03 03:27:42;;;;;;;94.38;17.60;;;;;;;;;;5075608;28;20418;-82
2023/03/03 03:30:15;;;;;;;99.70;17.42;;;;;;;;;;5072262;28;20429;-83
2023/03/03 03:32:48;;;;;;;172.65;18.48;;;;;;;;;;5068124;28;20412;-82
2023/03/03 03:35:16;;;;;;;132.63;17.67;;;;;;;;;;5075069;28;20429;-82
2023/03/03 03:37:44;;;;;;;139.10;17.17;;;;;;;;;;5067924;28;20422;-82
2023/03/03 03:40:13;;;;;;;130.82;17.08;;;;;;;;;;5074032;28;20423;-83
2023/03/03 03:42:42;;;;;;;117.82;17.00;;;;;;;;;;5075272;28;20418;-82
2023/03/03 03:45:14;;;;;;;96.88;17.17;;;;;;;;;;5075047;28;20414;-83
2023/03/03 03:47:47;;;;;;;173.82;18.48;;;;;;;;;;5072010;28;20410;-84
2023/03/03 03:50:20;;;;;;;107.73;16.40;;;;;;;;;;5075055;28;20414;-82
2023/03/03 03:52:48;;;;;;;78.00;16.17;;;;;;;;;;5071504;28;20436;-82
2023/03/03 03:55:22;;;;;;;123.72;17.40;;;;;;;;;;5066616;28;20425;-82
2023/03/03 03:57:56;;;;;;;76.22;16.98;;;;;;;;;;5065459;28;20927;-82
2023/03/03 04:00:30;;;;;;;86.57;17.25;;;;;;;;;;5076100;28;20419;-82
2023/03/03 04:03:03;;;;;;;56.17;15.98;;;;;;;;;;5071915;28;20418;-83
2023/03/03 04:05:31;;;;;;;159.27;17.40;;;;;;;;;;5077133;28;20417;-82
2023/03/03 04:08:04;;;;;;;87.32;16.98;;;;;;;;;;5068855;28;20414;-82
2023/03/03 04:10:32;;;;;;;104.80;16.92;;;;;;;;;;5070867;28;20422;-81
2023/03/03 04:13:01;;;;;;;82.72;16.08;;;;;;;;;;5074557;28;20422;-82
2023/03/03 04:15:28;;;;;;;80.47;16.70;;;;;;;;;;5074618;28;20425;-84
2023/03/03 04:18:03;;;;;;;51.50;15.80;;;;;;;;;;5074277;28;20422;-83
2023/03/03 04:20:30;;;;;;;72.75;16.58;;;;;;;;;;5074591;28;20434;-82
2023/03/03 04:22:58;;;;;;;91.70;16.58;;;;;;;;;;5074609;28;20409;-82
2023/03/03 04:25:32;;;;;;;67.20;17.42;;;;;;;;;;5080429;28;20427;-82
2023/03/03 04:28:14;;;;;;;157.18;16.95;;;;;;;;;;5074516;28;20907;-81
2023/03/03 04:30:47;;;;;;;96.88;18.15;;;;;;;;;;5065088;28;20415;-83
2023/03/03 04:33:21;;;;;;;49.53;16.88;;;;;;;;;;5073254;28;20421;-81
2023/03/03 04:35:54;;;;;;;81.88;17.27;;;;;;;;;;5069817;28;20906;-82
2023/03/03 04:38:22;;;;;;;61.90;16.50;;;;;;;;;;5073981;28;20418;-82
2023/03/03 04:40:56;;;;;;;44.10;16.67;;;;;;;;;;5062337;28;20404;-83
2023/03/03 04:43:34;;;;;;;60.15;16.70;;;;;;;;;;5066556;28;20414;-82
2023/03/03 04:46:07;;;;;;;70.78;16.88;;;;;;;;;;5071064;28;20411;-82
2023/03/03 04:48:40;;;;;;;43.90;16.45;;;;;;;;;;5073433;28;20410;-84
2023/03/03 04:51:15;;;;;;;69.65;16.90;;;;;;;;;;5074180;28;20417;-82
2023/03/03 04:53:48;;;;;;;76.70;16.20;;;;;;;;;;5068781;28;20418;-83
2023/03/03 04:56:21;;;;;;;70.47;16.92;;;;;;;;;;5073081;28;20504;-82
2023/03/03 04:58:51;;;;;;;57.92;16.63;;;;;;;;;;5067056;28;20435;-82
2023/03/03 05:01:19;;;;;;;108.73;16.70;;;;;;;;;;5079229;28;20419;-83
2023/03/03 05:03:52;;;;;;;84.45;17.02;;;;;;;;;;5079316;28;20419;-82
2023/03/03 05:06:24;;;;;;;75.03;16.17;;;;;;;;;;5073520;28;20421;-82
2023/03/03 05:08:52;;;;;;;81.65;16.05;;;;;;;;;;5069569;28;20409;-83
2023/03/03 05:11:20;;;;;;;127.47;17.23;;;;;;;;;;5072584;28;20432;-82
2023/03/03 05:13:54;;;;;;;67.20;16.17;;;;;;;;;;5073781;28;21094;-82
2023/03/03 05:16:27;;;;;;;142.00;17.70;;;;;;;;;;5067110;28;20422;-82
2023/03/03 05:19:00;;;;;;;144.00;16.52;;;;;;;;;;5072867;28;20402;-82
2023/03/03 05:21:33;;;;;;;181.10;16.92;;;;;;;;;;5084309;28;20417;-82
2023/03/03 05:24:01;;;;;;;81.23;16.13;;;;;;;;;;5068144;28;20501;-82
2023/03/03 05:26:28;;;;;;;114.57;16.20;;;;;;;;;;5069691;28;20418;-82
2023/03/03 05:28:57;;;;;;;50.75;15.88;;;;;;;;;;5073620;28;20944;-82
2023/03/03 05:31:30;;;;;;;62.05;16.05;;;;;;;;;;5068373;28;20413;-82
2023/03/03 05:34:03;;;;;;;75.88;15.55;;;;;;;;;;5066034;28;20420;-82
2023/03/03 05:36:36;;;;;;;167.70;16.30;;;;;;;;;;5059354;28;20890;-82
2023/03/03 05:39:04;;;;;;;79.13;15.77;;;;;;;;;;5068647;28;20426;-82
2023/03/03 05:41:37;;;;;;;70.07;15.82;;;;;;;;;;5073222;28;20798;-81
2023/03/03 05:44:06;;;;;;;43.40;16.05;;;;;;;;;;5068251;28;20433;-83
2023/03/03 05:46:39;;;;;;;36.83;16.67;;;;;;;;;;5068351;28;20408;-84
2023/03/03 05:49:07;;;;;;;55.75;19.90;;;;;;;;;;5069479;28;20417;-82
2023/03/03 05:51:35;;;;;;;78.18;17.27;;;;;;;;;;5088847;28;20881;-85
2023/03/03 05:54:07;;;;;;;71.50;21.05;;;;;;;;;;5066226;28;20421;-83
2023/03/03 05:56:35;;;;;;;89.10;23.33;;;;;;;;;;5073373;28;20426;-84
2023/03/03 05:59:09;;;;;;;73.18;20.55;;;;;;;;;;5087835;28;20426;-83
2023/03/03 06:01:37;;;;;;;121.75;21.30;;;;;;;;;;5054192;28;20428;-83
2023/03/03 06:04:10;;;;;;;133.15;29.77;;;;;;;;;;5075456;28;20419;-83
2023/03/03 06:06:43;;;;;;;56.03;20.60;;;;;;;;;;5063494;28;20425;-81
2023/03/03 06:09:17;;;;;;;103.23;20.87;;;;;;;;;;5084657;28;20418;-82
2023/03/03 06:11:52;;;;;;;102.17;17.33;;;;;;;;;;5085094;28;20420;-82
2023/03/03 06:14:21;;;;;;;66.50;17.40;;;;;;;;;;5058423;28;20422;-82
2023/03/03 06:16:49;;;;;;;56.97;18.13;;;;;;;;;;5081045;28;20430;-82
2023/03/03 06:19:17;;;;;;;86.72;17.52;;;;;;;;;;5067837;28;20899;-81
2023/03/03 06:21:44;;;;;;;55.80;17.25;;;;;;;;;;5085125;28;20754;-81
2023/03/03 06:24:12;;;;;;;88.45;17.20;;;;;;;;;;5086198;28;20401;-82
2023/03/03 06:26:45;;;;;;;50.67;16.38;;;;;;;;;;5063018;28;20435;-88
2023/03/03 06:29:13;;;;;;;54.88;16.52;;;;;;;;;;5064546;28;20790;-82
2023/03/03 06:31:42;;;;;;;84.97;17.80;;;;;;;;;;5068416;28;20480;-82
2023/03/03 06:34:10;;;;;;;75.75;18.48;;;;;;;;;;5071861;28;20417;-82
2023/03/03 06:36:38;;;;;;;73.78;16.13;;;;;;;;;;5064317;28;20770;-82
2023/03/03 06:39:10;;;;;;;106.95;19.30;;;;;;;;;;5072752;28;20429;-83
2023/03/03 06:41:43;;;;;;;71.85;17.88;;;;;;;;;;5071507;28;20424;-82
2023/03/03 06:44:11;;;;;;;94.72;17.88;;;;;;;;;;5071457;28;20406;-82
2023/03/03 06:46:39;;;;;;;53.88;16.38;;;;;;;;;;5070819;28;20888;-82
2023/03/03 06:49:08;;;;;;;66.78;17.90;;;;;;;;;;5070485;28;20417;-82
2023/03/03 06:51:42;;;;;;;56.53;18.57;;;;;;;;;;5066839;28;20427;-82
2023/03/03 06:54:12;;;;;;;68.53;16.70;;;;;;;;;;5075180;28;20417;-83
2023/03/03 06:56:40;;;;;;;98.22;15.88;;;;;;;;;;5093073;28;20496;-81
2023/03/03 06:59:14;;;;;;;104.38;15.57;;;;;;;;;;5091347;28;20423;-82
2023/03/03 07:01:42;;;;;;;42.27;14.17;;;;;;;;;;5075664;28;20418;-83
2023/03/03 07:04:13;;;;;;;107.57;15.32;;;;;;;;;;5075388;28;20429;-84
2023/03/03 07:06:41;;;;;;;80.90;15.32;;;;;;;;;;5071650;28;20434;-82
2023/03/03 07:09:13;;;;;;;86.90;15.30;;;;;;;;;;5066198;28;20485;-83
2023/03/03 07:11:42;;;;;;;91.15;14.77;;;;;;;;;;5068249;28;20781;-82
2023/03/03 07:14:16;;;;;;;79.65;14.80;;;;;;;;;;5070937;28;20431;-83
2023/03/03 07:16:53;;;;;;;60.78;14.35;;;;;;;;;;5079071;28;20426;-81
2023/03/03 07:19:26;;;;;;;29.15;13.77;;;;;;;;;;5093731;28;20432;-82
2023/03/03 07:21:59;;;;;;;73.18;14.98;;;;;;;;;;5074812;28;20410;-82
2023/03/03 07:24:33;;;;;;;99.30;15.23;;;;;;;;;;5075574;28;20433;-81
2023/03/03 07:27:06;;;;;;;103.90;14.53;;;;;;;;;;5073183;28;20963;-83
2023/03/03 07:29:40;;;;;;;83.05;15.25;;;;;;;;;;5073610;28;20907;-83
2023/03/03 07:32:19;;;;;;;98.50;15.73;;;;;;;;;;5066916;28;20490;-83
2023/03/03 07:34:49;;;;;;;45.95;14.75;;;;;;;;;;5072183;28;20800;-82
2023/03/03 07:37:19;;;;;;;61.65;14.98;;;;;;;;;;5062084;28;20435;-82
2023/03/03 07:39:51;;;;;;;50.38;14.43;;;;;;;;;;5070252;28;20430;-83
2023/03/03 07:42:21;;;;;;;30.50;14.48;;;;;;;;;;5072254;28;20430;-83
2023/03/03 07:44:56;;;;;;;34.70;14.63;;;;;;;;;;5070627;28;20424;-83
2023/03/03 07:47:30;;;;;;;39.90;13.38;;;;;;;;;;5082132;28;20424;-82
2023/03/03 07:50:14;;;;;;;32.72;13.60;;;;;;;;;;5058715;28;20443;-84
2023/03/03 07:52:55;;;;;;;32.90;12.90;;;;;;;;;;5059765;28;20425;-84
2023/03/03 07:55:26;;;;;;;42.90;13.88;;;;;;;;;;5069498;28;20446;-83
2023/03/03 07:58:15;;;;;;;67.05;13.25;;;;;;;;;;5068727;28;20422;-82
2023/03/03 08:01:12;;;;;;;34.60;13.93;;;;;;;;;;5068230;28;20431;-83
2023/03/03 08:03:49;;;;;;;30.40;13.77;;;;;;;;;;5063563;28;20790;-85
2023/03/03 08:06:40;;;;;;;42.78;13.57;;;;;;;;;;5067136;28;20421;-82
2023/03/03 08:09:24;;;;;;;38.75;13.88;;;;;;;;;;5048881;28;20913;-83
2023/03/03 08:11:54;;;;;;;30.30;13.95;;;;;;;;;;5057402;28;20431;-81
2023/03/03 08:14:29;;;;;;;36.70;12.55;;;;;;;;;;5064325;28;20426;-82
2023/03/03 08:17:07;;;;;;;59.78;12.73;;;;;;;;;;5063387;28;20425;-83
2023/03/03 08:19:39;;;;;;;46.90;13.00;;;;;;;;;;5071342;28;20429;-82
2023/03/03 08:22:11;;;;;;;27.73;13.03;;;;;;;;;;5079590;28;20430;-83
2023/03/03 08:24:41;;;;;;;44.58;12.90;;;;;;;;;;5082205;28;20443;-86
2023/03/03 08:27:08;;;;;;;32.63;12.18;;;;;;;;;;5031259;28;20425;-87
2023/03/03 08:29:41;;;;;;;56.90;12.98;;;;;;;;;;5058427;28;21045;-88
2023/03/03 08:32:09;;;;;;;78.07;12.20;;;;;;;;;;5065463;28;20427;-83
2023/03/03 08:34:37;;;;;;;31.40;12.07;;;;;;;;;;5055753;28;20442;-88
2023/03/03 08:37:10;;;;;;;67.97;12.68;;;;;;;;;;5052200;28;21121;-83
2023/03/03 08:39:37;;;;;;;45.50;12.07;;;;;;;;;;5049905;28;20455;-84
2023/03/03 08:42:07;;;;;;;47.50;11.95;;;;;;;;;;5055594;28;20430;-84
2023/03/03 08:44:34;;;;;;;40.70;12.10;;;;;;;;;;5045220;28;20529;-87
2023/03/03 08:47:07;;;;;;;55.67;12.07;;;;;;;;;;5045690;28;20460;-83
2023/03/03 08:49:40;;;;;;;42.00;11.63;;;;;;;;;;5050352;28;20783;-87
2023/03/03 08:52:09;;;;;;;39.78;11.80;;;;;;;;;;5064052;28;20430;-84
2023/03/03 08:54:41;;;;;;;31.67;12.73;;;;;;;;;;5055409;28;20877;-84
2023/03/03 08:57:15;;;;;;;35.00;11.98;;;;;;;;;;5048070;28;20431;-86
2023/03/03 08:59:48;;;;;;;35.88;13.18;;;;;;;;;;5053549;28;20433;-84
2023/03/03 09:02:21;;;;;;;39.53;12.70;;;;;;;;;;5046512;28;20821;-86
2023/03/03 09:04:54;;;;;;;43.23;12.23;;;;;;;;;;5060210;28;20489;-84
2023/03/03 09:07:22;;;;;;;33.67;12.17;;;;;;;;;;5049107;28;20438;-82
2023/03/03 09:09:54;;;;;;;25.40;11.57;;;;;;;;;;5050655;28;20447;-83
2023/03/03 09:12:26;;;;;;;44.38;11.85;;;;;;;;;;5045281;28;20434;-86
2023/03/03 09:14:56;;;;;;;49.17;12.60;;;;;;;;;;5048479;28;20445;-86
2023/03/03 09:17:25;;;;;;;68.25;13.50;;;;;;;;;;5048819;28;20440;-82
2023/03/03 09:20:01;;;;;;;130.33;13.73;;;;;;;;;;5051515;28;20429;-85
2023/03/03 09:22:36;;;;;;;90.60;14.38;;;;;;;;;;5059532;28;20440;-85
2023/03/03 09:25:14;;;;;;;51.28;14.02;;;;;;;;;;5029035;28;20422;-85
2023/03/03 09:27:45;;;;;;;71.83;13.20;;;;;;;;;;5038797;28;21018;-82
2023/03/03 09:30:29;;;;;;;94.78;15.57;;;;;;;;;;5057657;28;20449;-83
2023/03/03 09:33:16;;;;;;;36.47;13.80;;;;;;;;;;5050066;28;20435;-83
2023/03/03 09:35:45;;;;;;;94.72;14.25;;;;;;;;;;5047382;28;20446;-86
2023/03/03 09:38:24;;;;;;;51.92;12.15;;;;;;;;;;5057002;28;20763;-82
2023/03/03 09:40:57;;;;;;;123.35;12.57;;;;;;;;;;5050734;28;20877;-84
2023/03/03 09:43:31;;;;;;;134.23;12.63;;;;;;;;;;5061847;28;20433;-83
2023/03/03 09:46:09;;;;;;;39.90;12.13;;;;;;;;;;5067686;28;20425;-83
2023/03/03 09:48:50;;;;;;;45.80;12.60;;;;;;;;;;5054936;28;20433;-86
2023/03/03 09:51:36;;;;;;;56.80;12.98;;;;;;;;;;5053118;28;20776;-85
2023/03/03 09:54:14;;;;;;;82.85;12.85;;;;;;;;;;5063670;28;20984;-86
2023/03/03 09:56:49;;;;;;;38.25;12.25;;;;;;;;;;5063246;28;20433;-86
2023/03/03 09:59:28;;;;;;;42.67;12.25;;;;;;;;;;5045966;28;20909;-85
2023/03/03 10:02:07;;;;;;;88.68;12.38;;;;;;;;;;5065150;28;20415;-82
2023/03/03 10:04:55;;;;;;;83.20;11.40;;;;;;;;;;5053346;28;20418;-81
2023/03/03 10:07:27;;;;;;;46.70;12.13;;;;;;;;;;5052547;28;20442;-86
2023/03/03 10:10:05;;;;;;;96.57;12.80;;;;;;;;;;5058329;28;20430;-84
2023/03/03 10:12:37;;;;;;;56.08;12.80;;;;;;;;;;5055065;28;20437;-81
2023/03/03 10:15:17;;;;;;;67.93;12.68;;;;;;;;;;5055384;28;20445;-86
2023/03/03 10:17:49;;;;;;;47.72;12.25;;;;;;;;;;5057225;28;20429;-82
2023/03/03 10:20:24;;;;;;;46.80;12.05;;;;;;;;;;5049294;28;20462;-82
2023/03/03 10:22:53;;;;;;;55.22;12.20;;;;;;;;;;5067526;28;20451;-86
2023/03/03 10:25:26;;;;;;;43.53;12.05;;;;;;;;;;5021566;28;20946;-84
2023/03/03 10:28:03;;;;;;;41.13;12.38;;;;;;;;;;5049792;28;20425;-82
2023/03/03 10:30:41;;;;;;;69.22;12.93;;;;;;;;;;5053970;28;20434;-84
2023/03/03 10:33:12;;;;;;;54.70;12.27;;;;;;;;;;5073116;28;20409;-85
2023/03/03 10:35:52;;;;;;;33.55;12.85;;;;;;;;;;5051142;28;20437;-87
2023/03/03 10:38:34;;;;;;;42.40;13.30;;;;;;;;;;5057265;28;20429;-83
2023/03/03 10:41:08;;;;;;;47.75;13.18;;;;;;;;;;5048209;28;20806;-85
2023/03/03 10:43:48;;;;;;;52.90;12.60;;;;;;;;;;5071515;28;20417;-82
2023/03/03 10:46:32;;;;;;;30.77;12.13;;;;;;;;;;5048637;28;20429;-83
2023/03/03 10:49:13;;;;;;;32.28;12.63;;;;;;;;;;5067598;28;20434;-85
2023/03/03 10:51:55;;;;;;;25.17;12.80;;;;;;;;;;5046531;28;20418;-86
2023/03/03 10:54:38;;;;;;;36.78;11.75;;;;;;;;;;5049527;28;20807;-87
2023/03/03 10:57:08;;;;;;;68.87;13.07;;;;;;;;;;5050931;28;20425;-86
2023/03/03 10:59:47;;;;;;;45.13;11.85;;;;;;;;;;5071235;28;20410;-82
2023/03/03 11:02:23;;;;;;;34.75;10.57;;;;;;;;;;5057167;28;20422;-85
2023/03/03 11:05:01;;;;;;;43.70;11.55;;;;;;;;;;5055421;28;21162;-84
2023/03/03 11:07:35;;;;;;;29.23;12.05;;;;;;;;;;5054523;28;20422;-83
2023/03/03 11:10:17;;;;;;;21.83;11.73;;;;;;;;;;5054993;28;21079;-86
2023/03/03 11:12:52;;;;;;;33.65;12.07;;;;;;;;;;5047658;28;20426;-87
2023/03/03 11:15:34;;;;;;;29.13;11.87;;;;;;;;;;5049756;28;20426;-85
2023/03/03 11:18:15;;;;;;;22.75;11.98;;;;;;;;;;5055161;28;20430;-84
2023/03/03 11:20:47;;;;;;;22.55;12.30;;;;;;;;;;5070702;28;20421;-83
2023/03/03 11:23:37;;;;;;;41.23;12.97;;;;;;;;;;5063098;28;20426;-82
2023/03/03 11:26:14;;;;;;;31.13;12.75;;;;;;;;;;5043094;28;20439;-82
2023/03/03 11:28:53;;;;;;;26.80;12.98;;;;;;;;;;5055502;28;20414;-84
2023/03/03 11:31:22;;;;;;;25.07;12.43;;;;;;;;;;5060759;28;20981;-83
2023/03/03 11:34:01;;;;;;;25.30;11.98;;;;;;;;;;5050810;28;20438;-85
2023/03/03 11:36:30;;;;;;;26.40;12.02;;;;;;;;;;5052191;28;20438;-82
2023/03/03 11:38:59;;;;;;;25.70;11.75;;;;;;;;;;5076045;28;20431;-87
2023/03/03 11:41:30;;;;;;;23.30;11.53;;;;;;;;;;5061565;28;20430;-85
2023/03/03 11:44:02;;;;;;;25.58;10.73;;;;;;;;;;5047191;28;20438;-82
2023/03/03 11:46:31;;;;;;;21.05;9.50;;;;;;;;;;5055265;28;21216;-87
2023/03/03 11:49:08;;;;;;;17.55;8.93;;;;;;;;;;5060790;28;20438;-83
2023/03/03 11:51:47;;;;;;;21.42;9.77;;;;;;;;;;5058924;28;20974;-87
2023/03/03 11:54:23;;;;;;;22.63;9.40;;;;;;;;;;5069616;28;20444;-84
2023/03/03 11:56:55;;;;;;;22.58;11.75;;;;;;;;;;5051063;28;21191;-82
2023/03/03 11:59:36;;;;;;;29.10;12.60;;;;;;;;;;5054965;28;20430;-83
2023/03/03 12:02:15;;;;;;;43.95;18.02;;;;;;;;;;5051025;28;20429;-83
2023/03/03 12:04:47;;;;;;;49.60;19.88;;;;;;;;;;5049035;28;20433;-82
2023/03/03 12:07:20;;;;;;;44.90;19.33;;;;;;;;;;5051339;28;20932;-83
2023/03/03 12:09:56;;;;;;;43.95;18.70;;;;;;;;;;5051031;28;20437;-81
2023/03/03 12:12:27;;;;;;;42.58;18.25;;;;;;;;;;5062525;28;20794;-83
2023/03/03 12:15:04;;;;;;;42.13;17.83;;;;;;;;;;5050606;28;20436;-85
2023/03/03 12:17:40;;;;;;;35.60;15.75;;;;;;;;;;5071647;28;20417;-83
2023/03/03 12:20:15;;;;;;;32.83;14.38;;;;;;;;;;5056187;28;20425;-82
2023/03/03 12:22:53;;;;;;;31.75;13.98;;;;;;;;;;5052272;28;20426;-85
2023/03/03 12:25:28;;;;;;;29.15;13.23;;;;;;;;;;5027006;28;20444;-85
2023/03/03 12:28:00;;;;;;;30.42;13.60;;;;;;;;;;5049125;28;20436;-85
2023/03/03 12:30:42;;;;;;;33.50;14.73;;;;;;;;;;5051166;28;20430;-84
2023/03/03 12:33:22;;;;;;;30.63;14.80;;;;;;;;;;5046249;28;21597;-83
2023/03/03 12:35:57;;;;;;;32.78;14.02;;;;;;;;;;5048347;28;21431;-81
2023/03/03 12:38:30;;;;;;;34.83;14.40;;;;;;;;;;5069529;28;20430;-83
2023/03/03 12:41:01;;;;;;;33.42;13.88;;;;;;;;;;5060655;28;20437;-82
2023/03/03 12:43:35;;;;;;;31.45;14.10;;;;;;;;;;5075564;28;20437;-80
2023/03/03 12:46:06;;;;;;;30.60;13.82;;;;;;;;;;5072507;28;20414;-83
2023/03/03 12:48:41;;;;;;;31.60;13.88;;;;;;;;;;5051595;28;21274;-84
2023/03/03 12:51:15;;;;;;;35.70;14.13;;;;;;;;;;5054501;28;20433;-87
2023/03/03 12:53:59;;;;;;;29.90;13.55;;;;;;;;;;5052022;28;20414;-82
2023/03/03 12:56:35;;;;;;;34.13;13.00;;;;;;;;;;5070928;28;20433;-83
2023/03/03 12:59:12;;;;;;;33.78;14.55;;;;;;;;;;5072379;28;20426;-85
2023/03/03 13:01:52;;;;;;;36.10;16.23;;;;;;;;;;5074911;28;20414;-83
2023/03/03 13:04:29;;;;;;;35.15;16.38;;;;;;;;;;5053998;28;20433;-81
2023/03/03 13:07:00;;;;;;;34.70;15.73;;;;;;;;;;5053666;28;20433;-83
2023/03/03 13:09:39;;;;;;;31.60;15.37;;;;;;;;;;5074176;28;20514;-82
2023/03/03 13:12:21;;;;;;;36.72;17.13;;;;;;;;;;5046225;28;20414;-85
2023/03/03 13:14:57;;;;;;;35.55;15.80;;;;;;;;;;5058810;28;20778;-80
2023/03/03 13:17:32;;;;;;;33.93;15.17;;;;;;;;;;5061443;28;20837;-82
2023/03/03 13:20:12;;;;;;;31.67;14.55;;;;;;;;;;5051949;28;20414;-81
2023/03/03 13:22:44;;;;;;;32.42;15.60;;;;;;;;;;5052546;28;20433;-83
2023/03/03 13:25:24;;;;;;;30.98;14.40;;;;;;;;;;5064891;28;21021;-82
2023/03/03 13:27:55;;;;;;;28.58;14.35;;;;;;;;;;5050895;28;20424;-81
2023/03/03 13:30:30;;;;;;;30.20;13.77;;;;;;;;;;5046636;28;20790;-82
2023/03/03 13:33:00;;;;;;;27.07;13.37;;;;;;;;;;5046454;28;20429;-83
2023/03/03 13:35:34;;;;;;;26.00;13.25;;;;;;;;;;5069315;28;20422;-81
2023/03/03 13:38:12;;;;;;;27.85;13.30;;;;;;;;;;5047436;28;20430;-81
2023/03/03 13:40:46;;;;;;;29.95;13.68;;;;;;;;;;5067357;28;20414;-82
2023/03/03 13:43:16;;;;;;;25.55;12.85;;;;;;;;;;5044082;28;20418;-84
2023/03/03 13:45:50;;;;;;;23.42;12.50;;;;;;;;;;5048800;28;20433;-84
2023/03/03 13:48:31;;;;;;;27.00;11.30;;;;;;;;;;5045917;28;20430;-83
2023/03/03 13:51:09;;;;;;;24.50;11.00;;;;;;;;;;5048390;28;22427;-85
2023/03/03 13:53:43;;;;;;;22.47;11.53;;;;;;;;;;5060543;28;20449;-84
2023/03/03 13:56:20;;;;;;;21.02;10.88;;;;;;;;;;5043714;28;20449;-84
2023/03/03 13:58:52;;;;;;;25.27;10.25;;;;;;;;;;5045131;28;20800;-84
2023/03/03 14:01:23;;;;;;;17.85;9.48;;;;;;;;;;5053216;28;20430;-85
2023/03/03 14:03:59;;;;;;;18.50;9.57;;;;;;;;;;5044566;28;20424;-85
2023/03/03 14:06:32;;;;;;;16.92;8.40;;;;;;;;;;5053022;28;20431;-84
2023/03/03 14:09:14;;;;;;;18.90;8.90;;;;;;;;;;5050912;28;20448;-81
2023/03/03 14:11:48;;;;;;;17.40;8.75;;;;;;;;;;5052026;28;20429;-81
2023/03/03 14:14:23;;;;;;;16.67;8.23;;;;;;;;;;5041004;28;20423;-81
2023/03/03 14:16:52;;;;;;;15.20;7.10;;;;;;;;;;5068811;28;20434;-79
2023/03/03 14:19:23;;;;;;;15.88;6.68;;;;;;;;;;5059107;28;20806;-82
2023/03/03 14:22:06;;;;;;;14.23;6.05;;;;;;;;;;5080270;28;20433;-80
2023/03/03 14:24:53;;;;;;;15.20;6.25;;;;;;;;;;5079282;28;20421;-78
2023/03/03 14:27:28;;;;;;;12.65;6.35;;;;;;;;;;5065644;28;20428;-80
2023/03/03 14:29:56;;;;;;;11.95;5.90;;;;;;;;;;5081015;28;20429;-81
2023/03/03 14:32:25;;;;;;;15.77;5.45;;;;;;;;;;5080370;28;20427;-79
2023/03/03 14:34:59;;;;;;;11.90;5.40;;;;;;;;;;5084596;28;20410;-80
2023/03/03 14:37:27;;;;;;;11.95;4.95;;;;;;;;;;5063128;28;20418;-78
2023/03/03 14:40:02;;;;;;;9.93;5.38;;;;;;;;;;5062590;28;20415;-77
2023/03/03 14:42:39;;;;;;;11.75;4.40;;;;;;;;;;5077824;28;20428;-82
2023/03/03 14:45:28;;;;;;;11.23;4.07;;;;;;;;;;5080568;28;20754;-80
2023/03/03 14:48:09;;;;;;;9.98;4.00;;;;;;;;;;5078193;28;20424;-79
2023/03/03 14:50:43;;;;;;;10.45;3.90;;;;;;;;;;5065462;28;20461;-79
2023/03/03 14:53:13;;;;;;;8.55;3.65;;;;;;;;;;5062737;28;20412;-79